Time;durP1;ratioP1;P1;durP2;ratioP2;P2;SDS_P1;SDS_P2;PMS_P1;PMS_P2;Temp;Humidity;BMP_temperature;BMP_pressure;BME280_temperature;BME280_humidity;BME280_pressure;Samples;Min_cycle;Max_cycle;Signal;HPM_P1;HPM_P2
2023/09/11 00:01:45;;;;;;;;;;;;;;;24.05;40.15;101275.19;7394849;19;1434;-36
2023/09/11 00:04:13;;;;;;;;;;;;;;;24.00;39.96;101267.56;7395332;19;1458;-37
2023/09/11 00:06:42;;;;;;;;;;;;;;;24.05;40.16;101279.75;7395113;19;1580;-37
2023/09/11 00:09:10;;;;;;;;;;;;;;;24.04;39.88;101265.41;7392868;19;1655;-37
2023/09/11 00:11:39;;;;;;;;;;;;;;;23.95;40.00;101259.06;7395281;19;1514;-37
2023/09/11 00:14:07;;;;;;;;;;;;;;;23.96;39.82;101276.16;7394106;19;1866;-37
2023/09/11 00:16:39;;;;;;;;;;;;;;;23.99;40.00;101262.31;7394745;19;1643;-37
2023/09/11 00:19:09;;;;;;;;;;;;;;;23.93;39.98;101277.28;7395655;19;1654;-36
2023/09/11 00:21:37;;;;;;;;;;;;;;;23.95;39.64;101279.84;7395251;19;1490;-36
2023/09/11 00:24:06;;;;;;;;;;;;;;;23.87;39.84;101279.78;7394899;19;1763;-36
2023/09/11 00:26:34;;;;;;;;;;;;;;;23.89;40.10;101264.25;7395423;19;1562;-36
2023/09/11 00:29:02;;;;;;;;;;;;;;;23.87;40.11;101269.81;7395494;19;1458;-37
2023/09/11 00:31:31;;;;;;;;;;;;;;;23.82;40.10;101278.41;7394587;19;1855;-36
2023/09/11 00:34:02;;;;;;;;;;;;;;;23.88;40.00;101274.22;7393527;19;1853;-36
2023/09/11 00:36:30;;;;;;;;;;;;;;;23.90;40.05;101282.19;7394977;19;1661;-37
2023/09/11 00:38:58;;;;;;;;;;;;;;;23.86;39.95;101284.34;7394869;19;1393;-37
2023/09/11 00:41:26;;;;;;;;;;;;;;;23.21;39.98;101187.34;7393966;19;1941;-37
2023/09/11 00:43:55;;;;;;;;;;;;;;;23.69;40.02;101279.75;7393624;19;1847;-37
2023/09/11 00:46:23;;;;;;;;;;;;;;;23.62;39.86;101274.13;7395046;19;1556;-36
2023/09/11 00:48:54;;;;;;;;;;;;;;;23.61;40.13;101267.00;7393126;19;1493;-36
2023/09/11 00:51:25;;;;;;;;;;;;;;;23.59;39.98;101269.88;7394708;19;1510;-37
2023/09/11 00:53:53;;;;;;;;;;;;;;;23.62;40.24;101274.97;7394317;19;1845;-37
2023/09/11 00:56:22;;;;;;;;;;;;;;;23.64;40.38;101288.31;7395239;19;1533;-36
2023/09/11 00:58:51;;;;;;;;;;;;;;;23.58;40.26;101267.34;7393114;19;1882;-37
2023/09/11 01:01:20;;;;;;;;;;;;;;;23.54;40.16;101274.91;7392755;19;1822;-37
2023/09/11 01:03:49;;;;;;;;;;;;;;;23.41;40.59;101283.34;7395015;19;1538;-37
2023/09/11 01:06:17;;;;;;;;;;;;;;;23.54;40.52;101265.94;7392506;19;1770;-37
2023/09/11 01:08:48;;;;;;;;;;;;;;;23.48;40.71;101277.38;7392846;19;1973;-37
2023/09/11 01:11:16;;;;;;;;;;;;;;;23.55;40.47;101278.44;7392567;19;1819;-36
2023/09/11 01:13:44;;;;;;;;;;;;;;;23.44;40.26;101276.81;7393709;19;1744;-36
2023/09/11 01:16:16;;;;;;;;;;;;;;;23.46;40.64;101284.72;7391806;19;1849;-36
2023/09/11 01:18:49;;;;;;;;;;;;;;;23.37;40.31;101286.50;7393111;19;1505;-36
2023/09/11 01:21:29;;;;;;;;;;;;;;;23.24;40.51;101270.69;7398957;19;1754;-36
2023/09/11 01:24:13;;;;;;;;;;;;;;;23.33;40.64;101280.56;7399949;19;1526;-37
2023/09/11 01:26:50;;;;;;;;;;;;;;;23.29;40.67;101262.97;7400595;19;1824;-36
2023/09/11 01:29:23;;;;;;;;;;;;;;;23.38;40.61;101266.63;7401145;19;1695;-36
2023/09/11 01:31:52;;;;;;;;;;;;;;;23.34;40.50;101265.25;7400715;19;1719;-36
2023/09/11 01:34:20;;;;;;;;;;;;;;;23.32;40.91;101257.28;7399433;19;1843;-36
2023/09/11 01:36:48;;;;;;;;;;;;;;;23.43;40.40;101265.16;7399883;19;1751;-36
2023/09/11 01:39:17;;;;;;;;;;;;;;;23.42;40.59;101268.88;7399574;19;1798;-37
2023/09/11 01:41:47;;;;;;;;;;;;;;;23.43;40.55;101250.81;7398537;19;1724;-37
2023/09/11 01:44:18;;;;;;;;;;;;;;;23.42;40.50;101258.06;7400421;19;1937;-37
2023/09/11 01:46:50;;;;;;;;;;;;;;;23.48;40.40;101267.41;7397053;19;1827;-37
2023/09/11 01:49:20;;;;;;;;;;;;;;;23.50;40.12;101264.56;7399062;19;1603;-37
2023/09/11 01:51:49;;;;;;;;;;;;;;;23.35;40.26;101267.75;7399748;19;1488;-36
2023/09/11 01:54:18;;;;;;;;;;;;;;;23.26;40.38;101265.13;7398664;19;1841;-37
2023/09/11 01:56:46;;;;;;;;;;;;;;;23.31;40.25;101277.16;7400296;19;1760;-36
2023/09/11 01:59:16;;;;;;;;;;;;;;;23.35;40.64;101262.38;7399804;19;1735;-37
2023/09/11 02:01:45;;;;;;;;;;;;;;;23.39;40.38;101263.75;7398328;19;1439;-37
2023/09/11 02:04:16;;;;;;;;;;;;;;;23.43;40.48;101275.09;7399916;19;1746;-37
2023/09/11 02:06:44;;;;;;;;;;;;;;;23.45;40.02;101272.25;7399138;19;1553;-37
2023/09/11 02:09:13;;;;;;;;;;;;;;;23.33;40.47;101260.81;7399293;19;1849;-37
2023/09/11 02:11:41;;;;;;;;;;;;;;;23.36;40.11;101268.63;7399460;19;1851;-37
2023/09/11 02:14:09;;;;;;;;;;;;;;;23.29;40.12;101273.78;7399939;19;1944;-37
2023/09/11 02:16:37;;;;;;;;;;;;;;;23.29;40.26;101267.53;7396643;19;1952;-37
2023/09/11 02:19:06;;;;;;;;;;;;;;;23.28;40.17;101255.91;7399570;19;1976;-36
2023/09/11 02:21:37;;;;;;;;;;;;;;;23.28;40.07;101282.00;7397602;19;1827;-37
2023/09/11 02:24:05;;;;;;;;;;;;;;;23.20;39.79;101275.53;7397527;19;1584;-37
2023/09/11 02:26:34;;;;;;;;;;;;;;;23.08;40.29;101281.28;7397457;19;1605;-36
2023/09/11 02:29:02;;;;;;;;;;;;;;;23.14;40.04;101272.56;7398627;19;1644;-37
2023/09/11 02:31:30;;;;;;;;;;;;;;;23.07;40.45;101279.59;7396754;19;1945;-37
2023/09/11 02:33:58;;;;;;;;;;;;;;;23.16;40.17;101262.50;7397645;19;1427;-36
2023/09/11 02:36:27;;;;;;;;;;;;;;;23.10;40.38;101279.28;7396306;19;1850;-37
2023/09/11 02:38:58;;;;;;;;;;;;;;;23.21;39.88;101273.69;7396997;19;1941;-36
2023/09/11 02:41:26;;;;;;;;;;;;;;;23.10;40.36;101273.88;7396301;19;1977;-37
2023/09/11 02:43:54;;;;;;;;;;;;;;;23.18;40.37;101260.50;7396357;19;1549;-37
2023/09/11 02:46:22;;;;;;;;;;;;;;;23.28;40.17;101269.38;7398021;19;1573;-39
2023/09/11 02:48:51;;;;;;;;;;;;;;;23.19;40.26;101262.19;7398010;19;1293;-36
2023/09/11 02:51:19;;;;;;;;;;;;;;;23.28;40.09;101272.09;7396394;19;1519;-36
2023/09/11 02:53:47;;;;;;;;;;;;;;;23.19;40.05;101281.06;7398099;19;1245;-36
2023/09/11 02:56:18;;;;;;;;;;;;;;;23.24;39.67;101308.47;7394948;19;1849;-37
2023/09/11 02:58:46;;;;;;;;;;;;;;;23.13;40.07;101279.00;7396396;19;1559;-36
2023/09/11 03:01:15;;;;;;;;;;;;;;;23.14;40.15;101254.56;7396081;19;1451;-37
2023/09/11 03:03:43;;;;;;;;;;;;;;;23.20;39.99;101266.59;7396954;19;1497;-37
2023/09/11 03:06:11;;;;;;;;;;;;;;;23.29;39.75;101271.06;7396060;19;1517;-37
2023/09/11 03:08:40;;;;;;;;;;;;;;;23.29;39.71;101267.53;7396243;19;1483;-36
2023/09/11 03:11:09;;;;;;;;;;;;;;;23.17;39.76;101275.00;7396192;19;1497;-36
2023/09/11 03:13:40;;;;;;;;;;;;;;;23.16;39.58;101257.97;7396160;19;1384;-36
2023/09/11 03:16:09;;;;;;;;;;;;;;;23.13;39.77;101273.59;7394916;19;1852;-36
2023/09/11 03:18:38;;;;;;;;;;;;;;;23.15;40.03;101282.38;7395329;19;1595;-36
2023/09/11 03:21:07;;;;;;;;;;;;;;;23.11;39.82;101281.00;7397708;19;1699;-37
2023/09/11 03:23:35;;;;;;;;;;;;;;;23.18;39.48;101282.94;7395559;19;1929;-37
2023/09/11 03:26:04;;;;;;;;;;;;;;;23.03;39.56;101287.97;7395842;19;1664;-36
2023/09/11 03:28:33;;;;;;;;;;;;;;;22.98;39.65;101300.19;7396252;19;1922;-37
2023/09/11 03:31:04;;;;;;;;;;;;;;;23.00;39.51;101284.72;7396056;19;1897;-36
2023/09/11 03:33:32;;;;;;;;;;;;;;;22.89;39.58;101287.59;7395482;19;1546;-36
2023/09/11 03:36:01;;;;;;;;;;;;;;;22.84;39.61;101285.34;7395726;19;1848;-36
2023/09/11 03:38:29;;;;;;;;;;;;;;;22.82;39.75;101293.59;7396592;19;1793;-37
2023/09/11 03:40:58;;;;;;;;;;;;;;;22.85;39.64;101281.63;7396957;19;1624;-37
2023/09/11 03:43:26;;;;;;;;;;;;;;;22.74;39.52;101292.59;7394493;19;1827;-37
2023/09/11 03:45:55;;;;;;;;;;;;;;;22.71;39.93;101284.81;7395724;19;1839;-37
2023/09/11 03:48:26;;;;;;;;;;;;;;;22.69;40.12;101284.97;7396046;19;1835;-37
2023/09/11 03:50:54;;;;;;;;;;;;;;;22.81;39.94;101296.41;7392118;19;1861;-37
2023/09/11 03:53:22;;;;;;;;;;;;;;;22.71;39.93;101291.06;7394141;19;1980;-37
2023/09/11 03:55:50;;;;;;;;;;;;;;;22.60;39.98;101310.09;7392930;19;1868;-37
2023/09/11 03:58:19;;;;;;;;;;;;;;;22.55;40.20;101299.75;7395515;19;1934;-37
2023/09/11 04:00:47;;;;;;;;;;;;;;;22.53;40.37;101290.97;7394169;19;1484;-37
2023/09/11 04:03:16;;;;;;;;;;;;;;;22.54;40.33;101311.56;7392810;19;1507;-37
2023/09/11 04:05:46;;;;;;;;;;;;;;;22.52;40.35;101292.00;7392565;19;1403;-37
2023/09/11 04:08:15;;;;;;;;;;;;;;;22.52;40.46;101301.91;7393938;19;1256;-36
2023/09/11 04:10:44;;;;;;;;;;;;;;;22.52;40.36;101293.81;7394274;19;1712;-36
2023/09/11 04:13:12;;;;;;;;;;;;;;;22.50;40.53;101303.88;7394768;19;1552;-36
2023/09/11 04:15:40;;;;;;;;;;;;;;;22.67;40.21;101297.75;7393617;19;1896;-37
2023/09/11 04:18:09;;;;;;;;;;;;;;;23.05;39.85;101295.06;7392211;19;1465;-36
2023/09/11 04:20:37;;;;;;;;;;;;;;;23.39;39.71;101289.91;7394475;19;1558;-37
2023/09/11 04:23:08;;;;;;;;;;;;;;;23.58;39.46;101284.38;7392411;19;1535;-37
2023/09/11 04:25:36;;;;;;;;;;;;;;;23.65;39.49;101286.47;7389800;19;1528;-37
2023/09/11 04:28:05;;;;;;;;;;;;;;;23.30;40.75;101285.41;7392105;19;1443;-37
2023/09/11 04:30:33;;;;;;;;;;;;;;;23.05;43.41;101286.97;7393178;19;1470;-37
2023/09/11 04:33:02;;;;;;;;;;;;;;;22.93;41.70;101283.59;7392028;19;1411;-37
2023/09/11 04:35:31;;;;;;;;;;;;;;;23.09;41.71;101283.00;7391376;19;1854;-37
2023/09/11 04:37:59;;;;;;;;;;;;;;;22.94;41.99;101302.34;7389722;19;1507;-36
2023/09/11 04:40:30;;;;;;;;;;;;;;;22.84;42.22;101290.75;7391493;19;1769;-36
2023/09/11 04:42:59;;;;;;;;;;;;;;;22.93;42.08;101295.22;7390330;19;1744;-37
2023/09/11 04:45:27;;;;;;;;;;;;;;;22.96;41.50;101285.97;7390272;19;1853;-36
2023/09/11 04:47:55;;;;;;;;;;;;;;;22.78;42.47;101283.22;7389332;19;1965;-37
2023/09/11 04:50:23;;;;;;;;;;;;;;;22.81;42.15;101288.34;7387542;19;1344;-37
2023/09/11 04:52:55;;;;;;;;;;;;;;;22.86;42.14;101309.44;7385390;19;1578;-37
2023/09/11 04:55:23;;;;;;;;;;;;;;;22.95;41.68;101292.38;7393203;19;1880;-37
2023/09/11 04:57:54;;;;;;;;;;;;;;;22.85;42.16;101281.63;7391231;19;1427;-36
2023/09/11 05:00:22;;;;;;;;;;;;;;;22.84;42.07;101296.97;7393363;19;1451;-37
2023/09/11 05:02:51;;;;;;;;;;;;;;;22.89;42.01;101296.53;7397011;19;1487;-37
2023/09/11 05:05:19;;;;;;;;;;;;;;;22.97;41.55;101295.78;7393692;19;1273;-37
2023/09/11 05:07:48;;;;;;;;;;;;;;;22.89;41.53;101256.06;7395968;19;1580;-37
2023/09/11 05:10:17;;;;;;;;;;;;;;;23.15;41.44;101303.97;7393037;19;1573;-37
2023/09/11 05:12:45;;;;;;;;;;;;;;;23.17;41.46;101296.56;7393390;19;1505;-37
2023/09/11 05:15:16;;;;;;;;;;;;;;;23.20;41.37;101293.59;7394369;19;1489;-37
2023/09/11 05:17:44;;;;;;;;;;;;;;;23.23;41.30;101288.72;7392323;19;1839;-37
2023/09/11 05:20:13;;;;;;;;;;;;;;;23.34;41.30;101282.28;7398093;19;1743;-37
2023/09/11 05:22:41;;;;;;;;;;;;;;;23.36;41.20;101274.88;7395251;19;1664;-37
2023/09/11 05:25:10;;;;;;;;;;;;;;;23.45;41.11;101288.44;7396482;19;1758;-36
2023/09/11 05:27:38;;;;;;;;;;;;;;;23.46;41.08;101284.72;7396132;19;1331;-37
2023/09/11 05:30:07;;;;;;;;;;;;;;;23.47;41.00;101275.66;7390726;19;1422;-37
2023/09/11 05:32:38;;;;;;;;;;;;;;;23.50;41.15;101275.38;7394243;19;1835;-37
2023/09/11 05:35:07;;;;;;;;;;;;;;;23.52;41.35;101279.59;7395141;19;1747;-37
2023/09/11 05:37:36;;;;;;;;;;;;;;;23.45;41.62;101277.66;7390806;19;1842;-37
2023/09/11 05:40:07;;;;;;;;;;;;;;;23.47;41.62;101278.34;7392821;19;1805;-37
2023/09/11 05:42:35;;;;;;;;;;;;;;;23.42;41.67;101274.25;7392559;19;1795;-37
2023/09/11 05:45:03;;;;;;;;;;;;;;;23.45;41.55;101272.25;7395338;19;1461;-37
2023/09/11 05:47:31;;;;;;;;;;;;;;;23.37;41.69;101278.41;7394412;19;1736;-37
2023/09/11 05:50:03;;;;;;;;;;;;;;;23.23;41.97;101269.81;7393982;19;1676;-37
2023/09/11 05:52:31;;;;;;;;;;;;;;;23.20;42.18;101285.50;7392698;19;1833;-37
2023/09/11 05:54:59;;;;;;;;;;;;;;;23.19;41.98;101279.22;7393077;19;1541;-51
2023/09/11 05:57:28;;;;;;;;;;;;;;;23.16;42.34;101276.00;7392989;19;1866;-37
2023/09/11 05:59:56;;;;;;;;;;;;;;;23.05;42.57;101281.59;7394013;19;1814;-37
2023/09/11 06:02:25;;;;;;;;;;;;;;;23.03;42.92;101279.88;7395070;19;1797;-37
2023/09/11 06:04:53;;;;;;;;;;;;;;;23.01;42.78;101275.59;7393416;19;1961;-37
2023/09/11 06:07:24;;;;;;;;;;;;;;;23.07;42.91;101293.06;7390936;19;1921;-37
2023/09/11 06:09:52;;;;;;;;;;;;;;;23.00;43.10;101296.34;7393756;19;1827;-38
2023/09/11 06:12:20;;;;;;;;;;;;;;;23.27;42.73;101286.56;7392464;19;1435;-37
2023/09/11 06:14:49;;;;;;;;;;;;;;;23.52;42.54;101276.91;7391127;19;1437;-37
2023/09/11 06:17:17;;;;;;;;;;;;;;;23.62;42.08;101307.38;7391211;19;1825;-37
2023/09/11 06:19:45;;;;;;;;;;;;;;;23.38;42.97;101289.06;7391670;19;1731;-37
2023/09/11 06:22:14;;;;;;;;;;;;;;;23.35;43.26;101288.50;7393441;19;1766;-37
2023/09/11 06:24:44;;;;;;;;;;;;;;;23.52;42.91;101286.84;7390815;19;1486;-37
2023/09/11 06:27:13;;;;;;;;;;;;;;;23.49;43.15;101289.84;7391172;19;1452;-61
2023/09/11 06:29:41;;;;;;;;;;;;;;;23.76;42.79;101286.25;7394082;19;1809;-37
2023/09/11 06:32:11;;;;;;;;;;;;;;;23.82;42.47;101293.75;7393540;19;1834;-37
2023/09/11 06:34:40;;;;;;;;;;;;;;;23.75;42.87;101290.78;7391223;19;1942;-37
2023/09/11 06:37:09;;;;;;;;;;;;;;;23.55;43.60;101297.34;7391660;19;1865;-37
2023/09/11 06:39:37;;;;;;;;;;;;;;;23.56;43.83;101282.84;7393157;19;1736;-37
2023/09/11 06:42:08;;;;;;;;;;;;;;;23.67;43.63;101287.16;7392673;19;1565;-37
2023/09/11 06:44:36;;;;;;;;;;;;;;;23.73;43.47;101292.78;7393112;19;1755;-37
2023/09/11 06:47:05;;;;;;;;;;;;;;;23.60;44.18;101281.53;7389387;19;1416;-37
2023/09/11 06:49:33;;;;;;;;;;;;;;;23.63;44.13;101297.41;7392631;19;1395;-37
2023/09/11 06:52:03;;;;;;;;;;;;;;;23.66;44.06;101285.47;7390045;19;1652;-37
2023/09/11 06:54:31;;;;;;;;;;;;;;;23.61;44.24;101294.00;7391695;19;1316;-37
2023/09/11 06:56:59;;;;;;;;;;;;;;;23.73;44.08;101298.19;7387187;19;1883;-37
2023/09/11 06:59:30;;;;;;;;;;;;;;;23.70;44.54;101294.97;7388568;19;1534;-37
2023/09/11 07:01:59;;;;;;;;;;;;;;;23.76;44.24;101286.25;7391320;19;1766;-37
2023/09/11 07:04:27;;;;;;;;;;;;;;;23.81;44.54;101278.53;7391427;19;1744;-37
2023/09/11 07:06:56;;;;;;;;;;;;;;;23.77;44.37;101282.53;7390328;19;1775;-37
2023/09/11 07:09:25;;;;;;;;;;;;;;;23.71;44.63;101294.78;7390407;19;1490;-53
2023/09/11 07:11:53;;;;;;;;;;;;;;;23.77;44.48;101299.59;7389330;19;1668;-37
2023/09/11 07:14:22;;;;;;;;;;;;;;;23.75;44.50;101296.16;7390506;19;1485;-37
2023/09/11 07:16:55;;;;;;;;;;;;;;;23.87;44.23;101285.19;7389048;19;1867;-44
2023/09/11 07:19:23;;;;;;;;;;;;;;;23.89;44.23;101283.16;7388134;19;1454;-37
2023/09/11 07:21:51;;;;;;;;;;;;;;;24.02;43.63;101278.22;7390677;19;1792;-37
2023/09/11 07:24:20;;;;;;;;;;;;;;;23.93;43.53;101287.25;7391466;19;1766;-45
2023/09/11 07:26:48;;;;;;;;;;;;;;;24.08;43.38;101279.47;7392238;19;1468;-37
2023/09/11 07:29:17;;;;;;;;;;;;;;;24.28;43.37;101274.72;7390160;19;1831;-37
2023/09/11 07:31:46;;;;;;;;;;;;;;;24.24;43.24;101276.88;7390483;19;1787;-37
2023/09/11 07:34:17;;;;;;;;;;;;;;;24.25;42.97;101291.22;7389407;19;1486;-37
2023/09/11 07:36:45;;;;;;;;;;;;;;;24.16;42.62;101279.53;7387741;19;1849;-37
2023/09/11 07:39:13;;;;;;;;;;;;;;;24.15;42.39;101285.91;7386652;19;1534;-37
2023/09/11 07:41:42;;;;;;;;;;;;;;;24.11;42.80;101274.56;7389299;19;1723;-37
2023/09/11 07:44:10;;;;;;;;;;;;;;;24.06;42.26;101276.91;7391223;19;1561;-37
2023/09/11 07:46:38;;;;;;;;;;;;;;;24.10;42.49;101281.00;7389858;19;1520;-37
2023/09/11 07:49:07;;;;;;;;;;;;;;;24.36;42.23;101272.91;7389537;19;1407;-38
2023/09/11 07:51:37;;;;;;;;;;;;;;;24.36;42.17;101274.75;7389466;19;1534;-37
2023/09/11 07:54:06;;;;;;;;;;;;;;;24.42;41.20;101268.72;7392803;19;1305;-37
2023/09/11 07:56:37;;;;;;;;;;;;;;;24.42;41.68;101276.84;7390791;19;1856;-37
2023/09/11 07:59:06;;;;;;;;;;;;;;;24.52;41.40;101311.91;7388855;19;1483;-37
2023/09/11 08:01:34;;;;;;;;;;;;;;;24.43;41.79;101273.09;7390087;19;1780;-37
2023/09/11 08:04:03;;;;;;;;;;;;;;;24.29;41.85;101271.00;7389070;19;1399;-37
2023/09/11 08:06:31;;;;;;;;;;;;;;;24.34;41.58;101264.09;7388989;19;1752;-37
2023/09/11 08:09:03;;;;;;;;;;;;;;;24.35;40.97;101267.66;7387911;19;1387;-37
2023/09/11 08:11:34;;;;;;;;;;;;;;;24.24;41.77;101263.38;7388226;19;1733;-37
2023/09/11 08:14:02;;;;;;;;;;;;;;;24.36;41.45;101256.69;7387939;19;1802;-37
2023/09/11 08:16:31;;;;;;;;;;;;;;;24.34;41.58;101252.44;7387028;19;1846;-37
2023/09/11 08:19:00;;;;;;;;;;;;;;;24.40;41.40;101241.00;7390363;19;1688;-37
2023/09/11 08:21:28;;;;;;;;;;;;;;;24.53;40.51;101241.44;7386451;19;1550;-37
2023/09/11 08:23:56;;;;;;;;;;;;;;;24.41;41.16;101248.09;7390330;19;1522;-37
2023/09/11 08:26:27;;;;;;;;;;;;;;;24.34;41.19;101241.63;7387671;19;1384;-37
2023/09/11 08:28:56;;;;;;;;;;;;;;;24.31;39.79;101253.63;7387905;19;1891;-37
2023/09/11 08:31:24;;;;;;;;;;;;;;;24.19;39.33;101234.13;7396326;19;1799;-37
2023/09/11 08:33:54;;;;;;;;;;;;;;;24.36;39.23;101239.63;7397594;19;1676;-37
2023/09/11 08:36:23;;;;;;;;;;;;;;;24.24;39.96;101225.53;7398219;19;1709;-37
2023/09/11 08:38:51;;;;;;;;;;;;;;;24.39;40.21;101244.69;7394268;19;1841;-37
2023/09/11 08:41:20;;;;;;;;;;;;;;;24.33;40.07;101231.81;7394260;19;1810;-37
2023/09/11 08:43:52;;;;;;;;;;;;;;;24.38;38.72;101222.22;7395023;19;1539;-37
2023/09/11 08:46:21;;;;;;;;;;;;;;;24.30;39.93;101208.66;7397093;19;1847;-37
2023/09/11 08:48:52;;;;;;;;;;;;;;;24.41;39.68;101223.75;7396408;19;2135;-37
2023/09/11 08:51:24;;;;;;;;;;;;;;;24.52;37.73;101223.53;7394111;19;1499;-37
2023/09/11 08:53:53;;;;;;;;;;;;;;;24.66;36.23;101216.66;7396824;19;1846;-37
2023/09/11 08:56:21;;;;;;;;;;;;;;;24.63;38.64;101198.06;7394011;19;1554;-37
2023/09/11 08:58:53;;;;;;;;;;;;;;;24.57;38.67;101204.09;7393748;19;1845;-37
2023/09/11 09:01:22;;;;;;;;;;;;;;;24.64;38.47;101209.72;7393574;19;1529;-37
2023/09/11 09:03:52;;;;;;;;;;;;;;;24.51;38.35;101211.03;7395154;19;1733;-37
2023/09/11 09:06:20;;;;;;;;;;;;;;;24.48;38.67;101222.13;7394599;19;1577;-37
2023/09/11 09:08:49;;;;;;;;;;;;;;;24.04;37.40;101110.59;7396200;19;1818;-37
2023/09/11 09:11:18;;;;;;;;;;;;;;;24.50;38.38;101195.81;7391383;19;1390;-37
2023/09/11 09:13:47;;;;;;;;;;;;;;;24.61;37.37;101192.81;7394279;19;1200;-37
2023/09/11 09:16:18;;;;;;;;;;;;;;;24.56;38.30;101203.25;7394873;19;1778;-37
2023/09/11 09:18:49;;;;;;;;;;;;;;;24.54;38.05;101205.28;7393736;19;1863;-37
2023/09/11 09:21:18;;;;;;;;;;;;;;;24.63;36.60;101203.47;7396501;19;1660;-37
2023/09/11 09:23:44;;;;;;;;;;;;;;;24.67;37.97;101196.72;7395249;19;1715;-37
2023/09/11 09:26:13;;;;;;;;;;;;;;;24.63;38.06;101192.66;7394483;19;1921;-37
2023/09/11 09:28:51;;;;;;;;;;;;;;;24.69;37.11;101172.22;7396665;19;1769;-37
2023/09/11 09:31:28;;;;;;;;;;;;;;;24.77;36.74;101178.50;7396335;19;1472;-37
2023/09/11 09:33:57;;;;;;;;;;;;;;;24.76;37.27;101165.16;7394316;19;1481;-40
2023/09/11 09:36:25;;;;;;;;;;;;;;;24.73;37.56;101177.16;7395500;19;1450;-37
2023/09/11 09:38:53;;;;;;;;;;;;;;;24.70;36.13;101171.22;7392797;19;1849;-37
2023/09/11 09:41:23;;;;;;;;;;;;;;;24.69;36.24;101169.50;7394082;19;1754;-37
2023/09/11 09:43:55;;;;;;;;;;;;;;;24.76;36.83;101165.16;7394710;19;1506;-37
2023/09/11 09:46:24;;;;;;;;;;;;;;;24.57;37.68;101150.03;7397014;19;1556;-37
2023/09/11 09:48:55;;;;;;;;;;;;;;;24.59;37.48;101150.69;7395111;19;1972;-37
2023/09/11 09:51:24;;;;;;;;;;;;;;;24.55;37.49;101146.63;7394848;19;1826;-37
2023/09/11 09:53:56;;;;;;;;;;;;;;;24.66;36.37;101143.66;7395302;19;1740;-37
2023/09/11 09:56:24;;;;;;;;;;;;;;;24.82;35.52;101159.06;7393147;19;1514;-37
2023/09/11 09:58:52;;;;;;;;;;;;;;;24.82;37.35;101148.25;7393278;19;1869;-37
2023/09/11 10:01:21;;;;;;;;;;;;;;;24.79;36.78;101144.03;7392325;19;1434;-37
2023/09/11 10:03:50;;;;;;;;;;;;;;;24.90;36.95;101153.69;7394642;19;1508;-37
2023/09/11 10:06:22;;;;;;;;;;;;;;;24.89;37.57;101148.44;7393412;19;1432;-37
2023/09/11 10:09:05;;;;;;;;;;;;;;;24.87;36.04;101148.63;7385380;19;1534;-37
2023/09/11 10:11:35;;;;;;;;;;;;;;;24.87;37.33;101156.75;7393578;19;1483;-37
2023/09/11 10:14:04;;;;;;;;;;;;;;;24.82;37.73;101153.66;7393667;19;1466;-41
2023/09/11 10:16:33;;;;;;;;;;;;;;;24.76;36.57;101136.22;7392239;19;1592;-37
2023/09/11 10:19:02;;;;;;;;;;;;;;;24.93;35.94;101128.16;7392215;19;1861;-37
2023/09/11 10:21:34;;;;;;;;;;;;;;;24.95;36.51;101131.56;7394106;19;1649;-37
2023/09/11 10:24:02;;;;;;;;;;;;;;;25.00;36.04;101124.63;7394068;19;1748;-37
2023/09/11 10:26:36;;;;;;;;;;;;;;;24.95;36.40;101124.28;7390891;19;1563;-37
2023/09/11 10:29:06;;;;;;;;;;;;;;;25.04;37.00;101121.59;7393384;19;1826;-37
2023/09/11 10:31:35;;;;;;;;;;;;;;;25.00;36.96;101124.63;7392041;19;1882;-37
2023/09/11 10:34:04;;;;;;;;;;;;;;;25.01;35.68;101112.78;7392014;19;1620;-37
2023/09/11 10:36:37;;;;;;;;;;;;;;;24.94;38.04;101119.03;7392995;19;1849;-37
2023/09/11 10:39:06;;;;;;;;;;;;;;;25.00;37.13;101113.78;7390417;19;1900;-37
2023/09/11 10:41:36;;;;;;;;;;;;;;;24.96;37.53;101117.00;7391365;19;1619;-37
2023/09/11 10:44:04;;;;;;;;;;;;;;;25.02;37.56;101125.28;7392130;19;1441;-37
2023/09/11 10:46:38;;;;;;;;;;;;;;;24.94;36.25;101110.91;7391705;19;1701;-37
2023/09/11 10:49:16;;;;;;;;;;;;;;;24.93;36.97;101104.66;7392787;19;1561;-37
2023/09/11 10:51:47;;;;;;;;;;;;;;;24.91;37.35;101101.28;7392473;19;1612;-37
2023/09/11 10:54:16;;;;;;;;;;;;;;;24.95;36.57;101105.34;7393259;19;1309;-37
2023/09/11 10:56:45;;;;;;;;;;;;;;;25.05;36.67;101104.31;7394970;19;1755;-37
2023/09/11 10:59:13;;;;;;;;;;;;;;;25.12;36.00;101108.06;7388395;19;1855;-37
2023/09/11 11:01:42;;;;;;;;;;;;;;;25.09;36.28;101106.56;7387533;19;1436;-37
2023/09/11 11:04:15;;;;;;;;;;;;;;;25.00;36.78;101100.25;7391513;19;1538;-37
2023/09/11 11:06:49;;;;;;;;;;;;;;;25.15;36.55;101099.63;7391396;19;1414;-37
2023/09/11 11:09:28;;;;;;;;;;;;;;;25.19;36.25;101084.75;7390616;19;1505;-37
2023/09/11 11:11:58;;;;;;;;;;;;;;;25.04;36.87;101076.44;7392520;19;1684;-37
2023/09/11 11:14:27;;;;;;;;;;;;;;;25.02;37.56;101079.28;7389198;19;1553;-37
2023/09/11 11:17:07;;;;;;;;;;;;;;;24.90;38.13;101069.81;7390215;19;1505;-37
2023/09/11 11:19:37;;;;;;;;;;;;;;;24.95;37.96;101081.00;7388517;19;1858;-37
2023/09/11 11:22:09;;;;;;;;;;;;;;;25.07;37.87;101075.25;7391528;19;1398;-37
2023/09/11 11:24:52;;;;;;;;;;;;;;;25.14;36.94;101078.97;7391381;19;1824;-37
2023/09/11 11:27:20;;;;;;;;;;;;;;;25.02;38.31;101070.34;7390441;19;1856;-38
2023/09/11 11:29:49;;;;;;;;;;;;;;;25.10;36.33;101064.94;7391373;19;1839;-37
2023/09/11 11:32:17;;;;;;;;;;;;;;;25.10;36.29;101064.09;7391911;19;1561;-37
2023/09/11 11:34:47;;;;;;;;;;;;;;;25.19;37.45;101071.22;7391557;19;1683;-37
2023/09/11 11:37:21;;;;;;;;;;;;;;;25.13;36.67;101063.78;7391833;19;1737;-37
2023/09/11 11:39:49;;;;;;;;;;;;;;;25.25;36.55;101053.44;7387023;19;1854;-37
2023/09/11 11:42:18;;;;;;;;;;;;;;;25.32;35.99;101063.44;7389608;19;1542;-37
2023/09/11 11:44:47;;;;;;;;;;;;;;;25.37;35.73;101047.53;7372101;19;1837;-39
2023/09/11 11:47:17;;;;;;;;;;;;;;;25.36;35.94;101051.25;7388382;19;1395;-39
2023/09/11 11:49:46;;;;;;;;;;;;;;;25.36;35.63;101053.94;7388123;19;1434;-39
2023/09/11 11:52:17;;;;;;;;;;;;;;;25.40;36.67;101059.88;7388227;19;1561;-39
2023/09/11 11:54:46;;;;;;;;;;;;;;;25.24;37.61;101039.09;7386965;19;1779;-39
2023/09/11 11:57:14;;;;;;;;;;;;;;;25.12;37.90;101033.13;7388165;19;1834;-39
2023/09/11 11:59:43;;;;;;;;;;;;;;;25.17;36.94;101036.19;7386041;19;1853;-39
2023/09/11 12:02:20;;;;;;;;;;;;;;;25.11;38.43;101041.41;7387477;19;1442;-39
2023/09/11 12:04:48;;;;;;;;;;;;;;;25.17;36.70;101025.38;7387262;19;1833;-37
2023/09/11 12:07:20;;;;;;;;;;;;;;;25.27;36.45;101037.88;7387714;19;1823;-37
2023/09/11 12:09:49;;;;;;;;;;;;;;;25.33;35.90;101031.81;7380366;19;1491;-38
2023/09/11 12:12:18;;;;;;;;;;;;;;;25.39;36.77;101033.84;7386485;19;1521;-38
2023/09/11 12:14:46;;;;;;;;;;;;;;;25.22;37.96;101013.22;7390797;19;1648;-37
2023/09/11 12:17:15;;;;;;;;;;;;;;;25.19;37.89;101008.97;7389916;19;1830;-37
2023/09/11 12:19:44;;;;;;;;;;;;;;;25.16;37.60;101004.72;7388581;19;1842;-37
2023/09/11 12:22:12;;;;;;;;;;;;;;;25.14;38.57;100997.78;7390390;19;1748;-37
2023/09/11 12:24:43;;;;;;;;;;;;;;;25.22;37.32;100992.41;7391164;19;2037;-37
2023/09/11 12:27:12;;;;;;;;;;;;;;;25.37;37.70;101009.63;7387448;19;1966;-37
2023/09/11 12:29:43;;;;;;;;;;;;;;;25.53;36.09;100999.78;7386066;19;1644;-37
2023/09/11 12:32:11;;;;;;;;;;;;;;;25.55;35.64;101000.47;7387122;19;1806;-37
2023/09/11 12:34:44;;;;;;;;;;;;;;;25.56;36.05;101002.97;7386451;19;1412;-37
2023/09/11 12:37:12;;;;;;;;;;;;;;;25.35;36.93;100992.72;7387206;19;1825;-38
2023/09/11 12:39:43;;;;;;;;;;;;;;;25.32;37.19;100990.34;7381171;19;1877;-37
2023/09/11 12:42:12;;;;;;;;;;;;;;;25.40;36.28;100998.44;7388353;19;1576;-37
2023/09/11 12:44:40;;;;;;;;;;;;;;;25.30;37.92;100986.97;7374000;19;1850;-37
2023/09/11 12:47:09;;;;;;;;;;;;;;;25.18;37.50;100988.31;7389364;19;1645;-37
2023/09/11 12:49:37;;;;;;;;;;;;;;;25.18;37.79;100972.91;7389891;19;1513;-37
2023/09/11 12:52:07;;;;;;;;;;;;;;;25.32;38.00;100982.22;7381390;19;1575;-37
2023/09/11 12:54:35;;;;;;;;;;;;;;;25.26;38.64;100988.31;7388631;19;1489;-37
2023/09/11 12:57:07;;;;;;;;;;;;;;;25.35;37.89;100981.88;7390171;19;1688;-38
2023/09/11 12:59:36;;;;;;;;;;;;;;;25.40;37.78;100974.06;7388084;19;1829;-37